Time;durP1;ratioP1;P1;durP2;ratioP2;P2;SDS_P1;SDS_P2;PMS_P1;PMS_P2;Temp;Humidity;BMP_temperature;BMP_pressure;BME280_temperature;BME280_humidity;BME280_pressure;Samples;Min_cycle;Max_cycle;Signal;HPM_P1;HPM_P2
2022/06/11 00:00:51;;;;;;;4.13;3.13;;;14.90;99.90;;;;;;5041870;28;20600;-82
2022/06/11 00:03:36;;;;;;;4.50;4.20;;;14.80;99.90;;;;;;5040988;28;20399;-82
2022/06/11 00:06:23;;;;;;;4.73;3.50;;;14.70;99.90;;;;;;5041829;28;20806;-82
2022/06/11 00:09:09;;;;;;;5.23;3.80;;;15.00;99.90;;;;;;5041508;28;20395;-82
2022/06/11 00:11:54;;;;;;;3.30;3.10;;;14.90;99.90;;;;;;5041250;28;20407;-82
2022/06/11 00:14:41;;;;;;;5.10;4.33;;;14.90;99.90;;;;;;5041015;28;20799;-82
2022/06/11 00:17:26;;;;;;;6.77;5.37;;;14.80;99.90;;;;;;5041019;28;20414;-81
2022/06/11 00:20:13;;;;;;;4.77;4.37;;;14.70;99.90;;;;;;5041217;28;20450;-82
2022/06/11 00:22:58;;;;;;;4.83;4.43;;;14.80;99.90;;;;;;5041242;28;20771;-82
2022/06/11 00:25:42;;;;;;;5.10;4.57;;;14.50;99.90;;;;;;5041693;28;20395;-82
2022/06/11 00:28:27;;;;;;;3.57;3.37;;;14.60;99.90;;;;;;5041812;28;20910;-82
2022/06/11 00:31:11;;;;;;;3.70;3.40;;;14.70;99.90;;;;;;5041446;28;20487;-82
2022/06/11 00:33:56;;;;;;;5.10;4.70;;;14.80;99.90;;;;;;5040980;28;20410;-82
2022/06/11 00:36:43;;;;;;;4.90;4.50;;;14.80;99.90;;;;;;5040953;28;20914;-81
2022/06/11 00:39:33;;;;;;;5.70;3.83;;;14.90;99.90;;;;;;5040803;28;20759;-81
2022/06/11 00:42:22;;;;;;;5.20;4.07;;;14.70;99.90;;;;;;5040598;28;20406;-81
2022/06/11 00:45:22;;;;;;;6.33;5.50;;;14.60;99.90;;;;;;5040616;28;20387;-81
2022/06/11 00:48:13;;;;;;;4.50;4.10;;;14.70;99.90;;;;;;5040726;28;20466;-82
2022/06/11 00:51:04;;;;;;;4.70;4.30;;;14.70;99.90;;;;;;5040972;28;20911;-82
2022/06/11 00:53:56;;;;;;;5.00;4.60;;;14.80;99.90;;;;;;5041280;28;20807;-82
2022/06/11 00:56:47;;;;;;;4.30;4.00;;;14.70;99.90;;;;;;5040868;28;20492;-82
2022/06/11 00:59:37;;;;;;;4.83;4.43;;;14.90;99.90;;;;;;5039763;28;20442;-81
2022/06/11 01:02:22;;;;;;;7.40;4.37;;;14.90;99.90;;;;;;5040607;28;20744;-82
2022/06/11 01:05:08;;;;;;;5.60;4.60;;;14.80;99.90;;;;;;5040733;28;20387;-82
2022/06/11 01:08:14;;;;;;;3.63;3.33;;;14.70;99.90;;;;;;5040023;28;20403;-82
2022/06/11 01:11:16;;;;;;;3.87;3.57;;;14.70;99.90;;;;;;5040964;28;20495;-81
2022/06/11 01:14:19;;;;;;;6.47;3.93;;;14.60;99.90;;;;;;5040525;28;20415;-81
2022/06/11 01:17:19;;;;;;;4.40;4.00;;;14.50;99.90;;;;;;5040868;28;20395;-82
2022/06/11 01:20:22;;;;;;;4.20;3.90;;;14.40;99.90;;;;;;5040371;28;20513;-81
2022/06/11 01:23:37;;;;;;;7.03;4.10;;;14.40;99.90;;;;;;5040554;28;20915;-81
2022/06/11 01:26:42;;;;;;;5.23;4.77;;;14.50;99.90;;;;;;5040462;28;20399;-82
2022/06/11 01:29:40;;;;;;;4.63;4.27;;;14.40;99.90;;;;;;5041871;28;20391;-81
2022/06/11 01:32:34;;;;;;;5.33;4.83;;;14.40;99.90;;;;;;5042175;28;20410;-81
2022/06/11 01:35:28;;;;;;;5.77;3.80;;;14.20;99.90;;;;;;5052394;28;20450;-81
2022/06/11 01:38:40;;;;;;;4.23;3.83;;;14.20;99.90;;;;;;5040031;28;20406;-81
2022/06/11 01:41:38;;;;;;;4.80;4.40;;;14.10;99.90;;;;;;5039896;28;20962;-81
2022/06/11 01:44:29;;;;;;;4.47;4.07;;;14.00;99.90;;;;;;5039914;28;20455;-81
2022/06/11 01:47:14;;;;;;;9.57;4.30;;;14.00;99.90;;;;;;5040294;28;20419;-80
2022/06/11 01:49:59;;;;;;;5.13;4.63;;;13.90;99.90;;;;;;5040414;28;20396;-81
2022/06/11 01:53:06;;;;;;;4.30;3.67;;;13.80;99.90;;;;;;5039308;28;20414;-82
2022/06/11 01:56:25;;;;;;;4.40;3.80;;;13.80;99.90;;;;;;5039595;28;20470;-82
2022/06/11 01:59:25;;;;;;;5.80;4.13;;;13.90;99.90;;;;;;5039984;28;20391;-82
2022/06/11 02:02:29;;;;;;;8.60;4.70;;;13.80;99.90;;;;;;5042488;28;20419;-81
2022/06/11 02:05:24;;;;;;;6.07;4.30;;;13.70;99.90;;;;;;5043132;28;20735;-82
2022/06/11 02:08:21;;;;;;;4.70;4.30;;;13.60;99.90;;;;;;5039014;28;20574;-82
2022/06/11 02:11:42;;;;;;;6.00;4.20;;;13.60;99.90;;;;;;5040246;28;20543;-82
2022/06/11 02:14:50;;;;;;;4.90;3.97;;;13.70;99.90;;;;;;5052785;28;20457;-82
2022/06/11 02:17:38;;;;;;;4.87;4.30;;;13.60;99.90;;;;;;5041405;28;20466;-80
2022/06/11 02:20:31;;;;;;;4.70;4.27;;;13.40;99.90;;;;;;5039506;28;20446;-82
2022/06/11 02:23:21;;;;;;;4.20;3.57;;;13.30;99.90;;;;;;5039768;28;20462;-81
2022/06/11 02:26:29;;;;;;;6.70;4.97;;;13.50;99.90;;;;;;5053303;28;20387;-82
2022/06/11 02:29:17;;;;;;;5.77;4.60;;;13.50;99.90;;;;;;5039461;28;20405;-81
2022/06/11 02:32:13;;;;;;;4.13;3.83;;;13.50;99.90;;;;;;5052307;28;20399;-81
2022/06/11 02:35:05;;;;;;;5.80;5.20;;;13.40;99.90;;;;;;5040364;28;20437;-81
2022/06/11 02:37:49;;;;;;;5.10;4.70;;;13.30;99.90;;;;;;5037922;28;20445;-80
2022/06/11 02:40:40;;;;;;;7.40;4.60;;;13.20;99.90;;;;;;5039435;28;20447;-82
2022/06/11 02:43:48;;;;;;;6.33;5.73;;;13.30;99.90;;;;;;5038589;28;20438;-80
2022/06/11 02:46:48;;;;;;;5.50;4.47;;;13.20;99.90;;;;;;5049236;28;20458;-82
2022/06/11 02:49:35;;;;;;;8.73;5.70;;;13.20;99.90;;;;;;5038275;28;20399;-81
2022/06/11 02:52:25;;;;;;;5.80;5.20;;;13.00;99.90;;;;;;5039176;28;20900;-79
2022/06/11 02:55:10;;;;;;;7.90;4.60;;;13.00;99.90;;;;;;5052014;28;20462;-81
2022/06/11 02:57:55;;;;;;;5.30;4.80;;;13.10;99.90;;;;;;5039000;28;20414;-81
2022/06/11 03:00:44;;;;;;;4.27;3.90;;;13.10;99.90;;;;;;5039390;28;20592;-82
2022/06/11 03:03:28;;;;;;;4.53;4.10;;;13.10;99.90;;;;;;5039357;28;20398;-82
2022/06/11 03:06:13;;;;;;;6.17;4.27;;;12.90;99.90;;;;;;5038699;28;20387;-82
2022/06/11 03:08:59;;;;;;;7.60;5.00;;;12.90;99.90;;;;;;5038619;28;20805;-82
2022/06/11 03:11:43;;;;;;;6.97;4.23;;;12.70;99.90;;;;;;5051663;28;20691;-82
2022/06/11 03:14:28;;;;;;;6.17;5.00;;;12.80;99.90;;;;;;5039177;28;20449;-81
2022/06/11 03:17:16;;;;;;;5.47;4.53;;;12.80;99.90;;;;;;5051313;28;20387;-82
2022/06/11 03:20:00;;;;;;;4.37;4.07;;;12.90;99.90;;;;;;5038407;28;20481;-82
2022/06/11 03:22:45;;;;;;;5.03;4.60;;;13.00;99.90;;;;;;5042170;28;20387;-82
2022/06/11 03:25:29;;;;;;;4.90;4.50;;;12.90;99.90;;;;;;5042940;28;20398;-82
2022/06/11 03:28:19;;;;;;;5.93;5.07;;;12.80;99.90;;;;;;5042583;28;20737;-82
2022/06/11 03:31:06;;;;;;;5.50;5.10;;;12.80;99.90;;;;;;5042508;28;20826;-82
2022/06/11 03:33:50;;;;;;;4.70;4.27;;;12.80;99.90;;;;;;5042890;28;20402;-82
2022/06/11 03:36:35;;;;;;;4.60;4.30;;;12.90;99.90;;;;;;5042681;28;20898;-82
2022/06/11 03:39:21;;;;;;;5.53;4.90;;;12.70;99.90;;;;;;5042609;28;20386;-82
2022/06/11 03:42:06;;;;;;;4.90;4.30;;;12.80;99.90;;;;;;5042650;28;20395;-82
2022/06/11 03:44:51;;;;;;;5.30;4.80;;;12.80;99.90;;;;;;5042561;28;20472;-82
2022/06/11 03:47:38;;;;;;;9.67;4.97;;;12.90;99.90;;;;;;5037566;28;20403;-82
2022/06/11 03:50:28;;;;;;;9.40;5.20;;;13.00;99.90;;;;;;5024421;28;20398;-83
2022/06/11 03:53:13;;;;;;;4.93;4.53;;;13.00;99.90;;;;;;5027606;28;20529;-82
2022/06/11 03:55:58;;;;;;;7.67;4.00;;;12.90;99.90;;;;;;5042083;28;20536;-82
2022/06/11 03:58:45;;;;;;;5.87;5.37;;;13.10;99.90;;;;;;5044540;28;20445;-81
2022/06/11 04:01:31;;;;;;;7.30;5.17;;;13.20;99.90;;;;;;5049523;28;20504;-83
2022/06/11 04:04:19;;;;;;;5.33;4.53;;;13.30;99.90;;;;;;5063792;28;20391;-79
2022/06/11 04:07:04;;;;;;;5.07;4.63;;;13.40;99.90;;;;;;5052120;28;20395;-80
2022/06/11 04:09:49;;;;;;;7.87;5.73;;;13.60;99.90;;;;;;5052038;28;20442;-80
2022/06/11 04:12:33;;;;;;;6.13;3.90;;;13.60;99.90;;;;;;5060073;28;20406;-82
2022/06/11 04:15:19;;;;;;;6.47;5.00;;;13.60;99.90;;;;;;5043823;28;20445;-81
2022/06/11 04:18:04;;;;;;;5.70;5.13;;;13.70;99.90;;;;;;5050788;28;20434;-82
2022/06/11 04:20:49;;;;;;;8.20;5.47;;;13.60;99.90;;;;;;5041962;28;20514;-82
2022/06/11 04:23:34;;;;;;;5.53;5.03;;;13.70;99.90;;;;;;5042803;28;20387;-82
2022/06/11 04:26:23;;;;;;;5.10;4.57;;;13.50;99.90;;;;;;5041634;28;20386;-82
2022/06/11 04:29:11;;;;;;;5.33;4.90;;;13.50;99.90;;;;;;5042265;28;20383;-82
2022/06/11 04:31:57;;;;;;;5.30;4.50;;;13.50;99.90;;;;;;5041221;28;20414;-82
2022/06/11 04:34:43;;;;;;;5.00;4.60;;;13.70;99.90;;;;;;5054513;28;20801;-82
2022/06/11 04:37:30;;;;;;;6.80;5.50;;;13.90;99.90;;;;;;5041738;28;20394;-81
2022/06/11 04:40:17;;;;;;;8.10;4.67;;;13.90;99.90;;;;;;5041934;28;20442;-81
2022/06/11 04:43:02;;;;;;;7.40;6.80;;;14.00;99.90;;;;;;5043327;28;20750;-81
2022/06/11 04:45:46;;;;;;;5.90;5.40;;;14.10;99.90;;;;;;5044183;28;20915;-81
2022/06/11 04:48:32;;;;;;;5.00;4.60;;;14.40;99.90;;;;;;5054492;28;20411;-81
2022/06/11 04:51:17;;;;;;;7.00;6.20;;;14.30;99.90;;;;;;5041352;28;20887;-81
2022/06/11 04:54:02;;;;;;;9.97;5.70;;;14.60;99.90;;;;;;5041370;28;20426;-81
2022/06/11 04:56:47;;;;;;;7.67;5.30;;;14.60;99.90;;;;;;5053800;28;20465;-81
2022/06/11 04:59:33;;;;;;;6.43;5.80;;;14.50;99.90;;;;;;5041613;28;20415;-82
2022/06/11 05:02:17;;;;;;;6.17;5.57;;;14.60;99.90;;;;;;5040655;28;20386;-81
2022/06/11 05:05:03;;;;;;;5.63;5.13;;;14.70;99.90;;;;;;5041235;28;20413;-82
2022/06/11 05:07:49;;;;;;;6.30;5.70;;;14.90;99.90;;;;;;5040303;28;20382;-82
2022/06/11 05:10:35;;;;;;;6.60;5.53;;;14.90;99.90;;;;;;5040517;28;20515;-82
2022/06/11 05:13:19;;;;;;;6.00;5.40;;;15.00;99.90;;;;;;5040553;28;20386;-82
2022/06/11 05:16:05;;;;;;;6.47;5.70;;;15.30;99.90;;;;;;5039937;28;20391;-82
2022/06/11 05:18:50;;;;;;;5.60;5.10;;;15.70;99.90;;;;;;5053526;28;20399;-80
2022/06/11 05:21:35;;;;;;;5.63;4.90;;;15.60;99.90;;;;;;5040705;28;20450;-82
2022/06/11 05:24:20;;;;;;;6.83;5.50;;;15.40;99.90;;;;;;5053446;28;20914;-81
2022/06/11 05:27:11;;;;;;;9.47;5.40;;;15.50;99.90;;;;;;5050860;28;20429;-78
2022/06/11 05:30:00;;;;;;;6.20;5.37;;;15.60;99.90;;;;;;5063148;28;20410;-79
2022/06/11 05:32:45;;;;;;;5.53;5.03;;;15.70;99.90;;;;;;5052091;28;20399;-79
2022/06/11 05:35:33;;;;;;;5.70;5.17;;;15.60;99.90;;;;;;5050130;28;20394;-80
2022/06/11 05:38:21;;;;;;;8.70;6.00;;;15.60;99.90;;;;;;5058601;28;20418;-82
2022/06/11 05:41:06;;;;;;;4.67;4.37;;;15.60;99.90;;;;;;5040694;28;20506;-82
2022/06/11 05:43:51;;;;;;;6.30;5.73;;;16.00;99.90;;;;;;5040106;28;20392;-82
2022/06/11 05:46:36;;;;;;;4.97;4.33;;;16.10;99.90;;;;;;5018901;28;20428;-82
2022/06/11 05:49:25;;;;;;;5.30;4.80;;;16.20;99.90;;;;;;5018792;28;20604;-82
2022/06/11 05:52:15;;;;;;;5.13;4.70;;;16.40;99.90;;;;;;5019136;28;20554;-82
2022/06/11 05:54:59;;;;;;;5.73;5.27;;;16.40;99.90;;;;;;5019135;28;20412;-82
2022/06/11 05:57:47;;;;;;;10.23;4.97;;;16.60;99.90;;;;;;5019435;28;20406;-82
2022/06/11 06:00:32;;;;;;;6.23;5.33;;;16.90;99.90;;;;;;5004977;28;20551;-82
2022/06/11 06:03:16;;;;;;;6.17;5.47;;;16.90;99.90;;;;;;5018965;28;20391;-82
2022/06/11 06:06:01;;;;;;;4.73;4.43;;;16.80;99.90;;;;;;5018834;28;20423;-82
2022/06/11 06:08:46;;;;;;;5.80;4.90;;;16.80;99.90;;;;;;5005076;28;20396;-82
2022/06/11 06:11:30;;;;;;;7.23;5.00;;;16.70;99.90;;;;;;5019078;28;20434;-82
2022/06/11 06:14:14;;;;;;;5.33;4.93;;;16.70;99.90;;;;;;5017712;28;20462;-82
2022/06/11 06:16:59;;;;;;;6.27;4.80;;;16.70;99.90;;;;;;5026233;28;20454;-82
2022/06/11 06:19:43;;;;;;;4.77;4.40;;;16.80;99.90;;;;;;5038707;28;20387;-83
2022/06/11 06:22:28;;;;;;;4.87;4.47;;;16.90;99.90;;;;;;5038664;28;20915;-82
2022/06/11 06:25:16;;;;;;;8.40;5.03;;;16.80;99.90;;;;;;5039816;28;20426;-82
2022/06/11 06:28:00;;;;;;;6.10;5.50;;;16.90;99.90;;;;;;5039471;28;20458;-82
2022/06/11 06:30:45;;;;;;;4.20;3.90;;;17.10;99.90;;;;;;5039497;28;20394;-82
2022/06/11 06:33:30;;;;;;;7.03;4.87;;;17.00;99.90;;;;;;5039094;28;20406;-82
2022/06/11 06:36:15;;;;;;;8.73;4.70;;;17.20;99.90;;;;;;5039364;28;20391;-82
2022/06/11 06:39:00;;;;;;;5.60;5.20;;;17.40;99.90;;;;;;5039034;28;20410;-80
2022/06/11 06:41:45;;;;;;;8.93;4.93;;;17.50;99.90;;;;;;5040266;28;20446;-82
2022/06/11 06:44:29;;;;;;;7.27;4.20;;;17.50;99.90;;;;;;5040016;28;20450;-81
2022/06/11 06:47:14;;;;;;;4.43;4.07;;;17.80;99.90;;;;;;5039901;28;20423;-82
2022/06/11 06:49:59;;;;;;;4.40;4.00;;;17.90;99.90;;;;;;5038410;28;20402;-82
2022/06/11 06:52:43;;;;;;;4.50;4.10;;;17.80;99.90;;;;;;5039826;28;20398;-82
2022/06/11 06:55:29;;;;;;;5.23;4.83;;;17.80;99.90;;;;;;5038447;28;20439;-83
2022/06/11 06:58:16;;;;;;;5.13;4.63;;;18.20;99.90;;;;;;5044418;28;20403;-83
2022/06/11 07:01:02;;;;;;;9.70;5.80;;;17.80;99.90;;;;;;5057145;28;20546;-81
2022/06/11 07:03:46;;;;;;;5.03;4.53;;;17.80;99.90;;;;;;5044078;28;20453;-83
2022/06/11 07:06:32;;;;;;;4.53;4.23;;;17.70;99.90;;;;;;5044999;28;20394;-83
2022/06/11 07:09:16;;;;;;;5.63;5.10;;;17.80;99.90;;;;;;5045584;28;20948;-83
2022/06/11 07:12:01;;;;;;;5.17;4.70;;;17.90;99.90;;;;;;5046249;28;20394;-79
2022/06/11 07:14:46;;;;;;;5.30;4.73;;;18.20;99.90;;;;;;5044512;28;20394;-83
2022/06/11 07:17:40;;;;;;;6.33;4.77;;;18.10;99.90;;;;;;5043986;28;20417;-83
2022/06/11 07:20:27;;;;;;;8.57;4.43;;;18.30;99.90;;;;;;5046026;28;20450;-83
2022/06/11 07:23:20;;;;;;;5.13;4.63;;;18.50;99.90;;;;;;5045881;28;20792;-80
2022/06/11 07:26:09;;;;;;;4.83;4.47;;;18.20;99.90;;;;;;5043623;28;20418;-82
2022/06/11 07:29:00;;;;;;;5.20;4.70;;;18.40;99.90;;;;;;5043448;28;20391;-84
2022/06/11 07:31:47;;;;;;;7.33;5.30;;;18.90;99.90;;;;;;5042786;28;20390;-84
2022/06/11 07:34:32;;;;;;;6.77;3.87;;;18.50;99.90;;;;;;5044577;28;20414;-83
2022/06/11 07:37:18;;;;;;;4.70;4.40;;;18.90;99.90;;;;;;5057300;28;20394;-84
2022/06/11 07:40:04;;;;;;;4.53;4.23;;;18.90;99.90;;;;;;5043910;28;20445;-84
2022/06/11 07:42:49;;;;;;;3.80;3.60;;;18.90;99.90;;;;;;5057339;28;20402;-84
2022/06/11 07:45:34;;;;;;;6.73;5.00;;;19.20;99.90;;;;;;5043781;28;20390;-83
2022/06/11 07:48:19;;;;;;;8.27;4.30;;;19.50;99.90;;;;;;5044973;28;20493;-84
2022/06/11 07:51:07;;;;;;;5.00;4.50;;;19.50;99.90;;;;;;5045599;28;20700;-82
2022/06/11 07:53:54;;;;;;;4.93;4.40;;;19.60;99.90;;;;;;5044033;28;20481;-84
2022/06/11 07:56:39;;;;;;;4.30;4.00;;;19.70;99.90;;;;;;5012124;28;20549;-84
2022/06/11 07:59:26;;;;;;;4.13;3.77;;;19.80;99.90;;;;;;5013977;28;20392;-80
2022/06/11 08:02:10;;;;;;;4.90;4.07;;;19.90;99.90;;;;;;5013609;28;20407;-83
2022/06/11 08:04:55;;;;;;;4.20;3.83;;;20.10;99.90;;;;;;5014946;28;20380;-83
2022/06/11 08:07:40;;;;;;;3.73;3.43;;;20.00;99.90;;;;;;5013663;28;20421;-81
2022/06/11 08:10:26;;;;;;;5.37;3.80;;;20.20;99.90;;;;;;5010344;28;20436;-82
2022/06/11 08:13:11;;;;;;;9.23;3.87;;;20.50;99.90;;;;;;5004431;28;20889;-83
2022/06/11 08:15:56;;;;;;;5.70;5.30;;;20.40;99.90;;;;;;5003970;28;20454;-83
2022/06/11 08:18:41;;;;;;;3.73;3.53;;;20.60;99.90;;;;;;5002847;28;20437;-82
2022/06/11 08:21:25;;;;;;;3.80;3.50;;;20.40;99.90;;;;;;5003105;28;20452;-82
2022/06/11 08:24:10;;;;;;;4.00;3.70;;;20.50;99.90;;;;;;5002440;28;20420;-84
2022/06/11 08:26:54;;;;;;;4.23;3.63;;;20.40;99.90;;;;;;5003390;28;20438;-83
2022/06/11 08:29:39;;;;;;;5.13;3.67;;;20.60;99.90;;;;;;5002250;28;20451;-83
2022/06/11 08:32:23;;;;;;;3.70;3.40;;;20.80;99.90;;;;;;5002810;28;20461;-83
2022/06/11 08:35:10;;;;;;;3.03;2.83;;;20.80;99.90;;;;;;5003142;28;20424;-84
2022/06/11 08:37:55;;;;;;;4.03;3.63;;;20.90;99.90;;;;;;5003450;28;20393;-83
2022/06/11 08:40:46;;;;;;;3.30;3.10;;;21.30;99.90;;;;;;5003547;28;20475;-84
2022/06/11 08:43:34;;;;;;;3.93;3.50;;;21.30;99.90;;;;;;5002660;28;20751;-83
2022/06/11 08:46:24;;;;;;;4.10;3.80;;;21.40;99.90;;;;;;5004040;28;20404;-84
2022/06/11 08:49:13;;;;;;;4.27;3.40;;;21.10;99.90;;;;;;5003407;28;20389;-84
2022/06/11 08:52:14;;;;;;;5.27;3.80;;;21.70;99.90;;;;;;5006266;28;20408;-83
2022/06/11 08:55:00;;;;;;;3.60;3.13;;;22.20;99.90;;;;;;5003921;28;20396;-83
2022/06/11 08:58:13;;;;;;;3.30;2.70;;;22.70;99.90;;;;;;5002005;28;20476;-82
2022/06/11 09:01:11;;;;;;;3.73;3.43;;;22.40;99.90;;;;;;5002670;28;20468;-84
2022/06/11 09:04:24;;;;;;;3.23;3.03;;;22.30;99.90;;;;;;5002082;28;20428;-84
2022/06/11 09:07:24;;;;;;;2.93;2.73;;;22.60;99.90;;;;;;5002311;28;20497;-83
2022/06/11 09:10:35;;;;;;;4.00;2.57;;;22.70;99.90;;;;;;5002943;28;20480;-83
2022/06/11 09:13:50;;;;;;;4.20;2.80;;;22.80;99.90;;;;;;5002527;28;20407;-83
2022/06/11 09:16:52;;;;;;;3.70;3.33;;;23.10;99.90;;;;;;5001664;28;20417;-82
2022/06/11 09:19:56;;;;;;;4.73;3.20;;;23.20;99.90;;;;;;5001116;28;20428;-84
2022/06/11 09:22:55;;;;;;;3.00;2.70;;;23.30;99.90;;;;;;5019465;28;20431;-84
2022/06/11 09:26:04;;;;;;;3.20;2.80;;;23.30;99.90;;;;;;5006269;28;20495;-82
2022/06/11 09:29:09;;;;;;;3.43;2.80;;;23.70;99.90;;;;;;5021034;28;20455;-83
2022/06/11 09:32:13;;;;;;;3.37;3.17;;;23.90;99.90;;;;;;5020384;28;20459;-83
2022/06/11 09:35:09;;;;;;;4.83;3.00;;;24.10;99.90;;;;;;5021076;28;20399;-86
2022/06/11 09:38:17;;;;;;;6.00;2.90;;;24.30;99.90;;;;;;5021359;28;20431;-85
2022/06/11 09:41:29;;;;;;;3.30;2.97;;;23.80;99.90;;;;;;5022524;28;20635;-86
2022/06/11 09:44:39;;;;;;;3.30;3.10;;;24.20;99.90;;;;;;5023715;28;20403;-85
2022/06/11 09:47:44;;;;;;;7.23;5.00;;;23.90;99.90;;;;;;5020939;28;20454;-85
2022/06/11 09:50:40;;;;;;;3.30;3.00;;;23.90;99.90;;;;;;5022872;28;20424;-86
2022/06/11 09:53:48;;;;;;;4.70;3.90;;;23.90;99.90;;;;;;5020889;28;20400;-85
2022/06/11 09:56:53;;;;;;;2.67;2.47;;;24.40;99.90;;;;;;5031038;28;20562;-86
2022/06/11 09:59:44;;;;;;;3.10;2.83;;;24.30;99.90;;;;;;5041636;28;20453;-85
2022/06/11 10:03:00;;;;;;;2.80;2.60;;;24.20;99.90;;;;;;5041601;28;20430;-84
2022/06/11 10:05:56;;;;;;;4.67;2.40;;;24.10;99.90;;;;;;5041889;28;20406;-86
2022/06/11 10:08:45;;;;;;;2.83;2.63;;;24.50;99.90;;;;;;5051154;28;20479;-84
2022/06/11 10:11:39;;;;;;;3.53;2.63;;;24.80;99.90;;;;;;5050336;28;20422;-83
2022/06/11 10:14:49;;;;;;;3.83;2.60;;;24.40;99.90;;;;;;5034094;28;20415;-83
2022/06/11 10:17:44;;;;;;;2.50;2.30;;;24.60;99.90;;;;;;5051592;28;20459;-83
2022/06/11 10:20:36;;;;;;;4.73;1.93;;;24.50;99.80;;;;;;5035989;28;20458;-82
2022/06/11 10:23:47;;;;;;;2.40;1.97;;;24.50;97.60;;;;;;5049094;28;20391;-83
2022/06/11 10:26:38;;;;;;;2.73;2.30;;;24.90;97.60;;;;;;5051736;28;20449;-83
2022/06/11 10:29:34;;;;;;;2.80;2.60;;;25.30;94.90;;;;;;5051032;28;20403;-84
2022/06/11 10:32:29;;;;;;;3.00;2.70;;;25.80;96.00;;;;;;5050093;28;20462;-83
2022/06/11 10:35:24;;;;;;;4.97;2.80;;;25.90;94.30;;;;;;5054526;28;20390;-83
2022/06/11 10:38:26;;;;;;;3.30;2.37;;;24.90;95.20;;;;;;5054122;28;20411;-83
2022/06/11 10:41:20;;;;;;;2.90;2.70;;;24.80;95.70;;;;;;5012394;28;20473;-83
2022/06/11 10:44:20;;;;;;;2.20;2.10;;;24.70;97.00;;;;;;5055348;28;20415;-83
2022/06/11 10:47:25;;;;;;;2.77;2.40;;;24.90;97.30;;;;;;5054134;28;20398;-84
2022/06/11 10:50:24;;;;;;;2.47;1.80;;;24.90;97.70;;;;;;5050201;28;20410;-83
2022/06/11 10:53:32;;;;;;;3.10;2.33;;;25.00;97.10;;;;;;5034192;28;20447;-83
2022/06/11 10:56:24;;;;;;;3.50;2.53;;;25.10;96.70;;;;;;5048631;28;20468;-82
2022/06/11 10:59:28;;;;;;;3.13;2.60;;;25.50;96.40;;;;;;5048526;28;20398;-83
2022/06/11 11:02:36;;;;;;;4.03;2.50;;;25.80;95.70;;;;;;5043495;28;20450;-85
2022/06/11 11:05:21;;;;;;;2.30;2.20;;;26.30;96.40;;;;;;5039020;28;20406;-85
2022/06/11 11:08:06;;;;;;;2.73;2.53;;;26.60;94.50;;;;;;5037790;28;20513;-86
2022/06/11 11:10:54;;;;;;;2.93;2.63;;;26.30;93.40;;;;;;5039370;28;20463;-86
2022/06/11 11:13:42;;;;;;;1.97;1.87;;;26.00;93.20;;;;;;5040331;28;20445;-86
2022/06/11 11:16:32;;;;;;;2.47;2.27;;;26.00;95.40;;;;;;5040191;28;20453;-86
2022/06/11 11:19:21;;;;;;;4.07;3.77;;;26.10;94.50;;;;;;5037923;28;20732;-86
2022/06/11 11:22:15;;;;;;;2.73;2.47;;;26.40;93.40;;;;;;5039297;28;20453;-86
2022/06/11 11:25:01;;;;;;;2.30;2.20;;;25.90;94.10;;;;;;5039357;28;20959;-87
2022/06/11 11:27:49;;;;;;;5.50;3.10;;;25.60;93.50;;;;;;5038670;28;20394;-85
2022/06/11 11:30:38;;;;;;;2.87;2.30;;;25.50;92.80;;;;;;5040425;28;20541;-86
2022/06/11 11:33:29;;;;;;;2.50;2.30;;;25.60;93.30;;;;;;5040291;28;20394;-86
2022/06/11 11:36:21;;;;;;;3.50;2.30;;;25.80;92.50;;;;;;5040443;28;20426;-86
2022/06/11 11:39:21;;;;;;;2.23;2.00;;;26.70;91.60;;;;;;5039650;28;20409;-85
2022/06/11 11:42:17;;;;;;;3.73;2.20;;;27.10;88.00;;;;;;5041063;28;20449;-84
2022/06/11 11:45:21;;;;;;;2.07;1.97;;;27.30;88.60;;;;;;5042881;28;20461;-87
2022/06/11 11:48:07;;;;;;;4.50;2.93;;;27.10;85.50;;;;;;5026023;28;20425;-87
2022/06/11 11:50:58;;;;;;;2.90;2.13;;;27.40;85.30;;;;;;5040092;28;20466;-86
2022/06/11 11:53:47;;;;;;;2.97;2.30;;;26.80;84.70;;;;;;5039567;28;20457;-86
2022/06/11 11:56:46;;;;;;;4.40;2.80;;;27.40;80.90;;;;;;5025519;28;20481;-86
2022/06/11 11:59:56;;;;;;;2.43;2.23;;;27.20;81.90;;;;;;5040647;28;20444;-86
2022/06/11 12:02:46;;;;;;;3.63;2.20;;;26.60;82.00;;;;;;5027602;28;20956;-86
2022/06/11 12:05:39;;;;;;;2.03;1.90;;;27.00;85.20;;;;;;5040556;28;20902;-87
2022/06/11 12:08:40;;;;;;;5.60;2.67;;;27.30;83.00;;;;;;5040081;28;20410;-86
2022/06/11 12:11:34;;;;;;;4.80;2.70;;;26.70;87.50;;;;;;5026819;28;20448;-84
2022/06/11 12:14:19;;;;;;;3.97;3.10;;;25.80;85.40;;;;;;5041831;28;20480;-83
2022/06/11 12:17:22;;;;;;;3.80;2.83;;;25.50;88.20;;;;;;5032900;28;20437;-82
2022/06/11 12:23:45;;;;;;;3.87;2.77;;;26.10;87.10;;;;;;4962365;29;20908;-83
2022/06/11 12:26:37;;;;;;;3.23;2.50;;;26.40;84.70;;;;;;4970635;29;20439;-82
2022/06/11 12:29:43;;;;;;;2.90;2.50;;;26.20;84.30;;;;;;4957972;29;20449;-84
2022/06/11 12:32:32;;;;;;;6.03;4.33;;;26.70;84.30;;;;;;4957213;29;20402;-84
2022/06/11 12:35:28;;;;;;;4.10;2.33;;;26.80;84.00;;;;;;4971167;29;20622;-84
2022/06/11 12:38:26;;;;;;;2.83;2.57;;;26.80;83.80;;;;;;4971753;29;20417;-84
2022/06/11 12:41:50;;;;;;;2.87;2.60;;;26.90;83.60;;;;;;4971757;29;20581;-83
2022/06/11 12:44:50;;;;;;;2.50;2.30;;;26.70;83.10;;;;;;4972023;29;20941;-83
2022/06/11 12:48:10;;;;;;;2.57;2.37;;;27.40;82.40;;;;;;4971712;29;20397;-84
2022/06/11 12:51:03;;;;;;;2.57;2.17;;;28.40;76.00;;;;;;4976892;28;20417;-83
2022/06/11 12:54:03;;;;;;;2.77;2.57;;;28.70;77.90;;;;;;4961527;28;20482;-83
2022/06/11 12:57:11;;;;;;;2.40;2.20;;;29.10;75.10;;;;;;4962165;28;20504;-82
2022/06/11 13:00:26;;;;;;;2.35;2.03;;;29.70;72.30;;;;;;5036550;28;20178;-84
2022/06/11 13:03:46;;;;;;;2.78;2.55;;;29.90;71.30;;;;;;5048193;28;20171;-81
2022/06/11 13:06:48;;;;;;;3.10;2.38;;;30.00;70.60;;;;;;5048240;28;20238;-84
2022/06/11 13:09:50;;;;;;;3.05;2.78;;;29.90;69.70;;;;;;5050379;28;20223;-84
2022/06/11 13:13:01;;;;;;;2.20;2.00;;;29.50;69.40;;;;;;5045594;28;20170;-82
2022/06/11 13:16:19;;;;;;;2.43;2.23;;;28.60;70.70;;;;;;5042395;28;20218;-84
2022/06/11 13:19:28;;;;;;;2.22;2.10;;;29.10;77.70;;;;;;5039616;28;20685;-83
2022/06/11 13:22:49;;;;;;;2.00;1.90;;;28.70;69.40;;;;;;5025114;28;20222;-83
2022/06/11 13:25:56;;;;;;;5.32;2.20;;;29.60;71.40;;;;;;5039291;28;20265;-82
2022/06/11 13:29:05;;;;;;;3.45;2.83;;;30.70;71.60;;;;;;5016856;28;20250;-84
2022/06/11 13:32:17;;;;;;;2.15;2.05;;;31.00;66.80;;;;;;5017936;28;20250;-84
2022/06/11 13:35:33;;;;;;;2.60;2.40;;;29.50;69.10;;;;;;5002869;28;20233;-84
2022/06/11 13:38:33;;;;;;;2.55;2.35;;;30.20;65.90;;;;;;5017622;28;20192;-84
2022/06/11 13:41:44;;;;;;;3.17;2.42;;;30.80;64.70;;;;;;5019139;28;20239;-83
2022/06/11 13:45:01;;;;;;;5.13;2.20;;;30.60;63.00;;;;;;5025793;28;20243;-81
2022/06/11 13:47:58;;;;;;;2.50;2.30;;;30.70;62.20;;;;;;5017965;28;20267;-84
2022/06/11 13:50:51;;;;;;;2.42;2.13;;;30.80;63.40;;;;;;5017200;28;20196;-83
2022/06/11 13:57:25;;;;;;;2.55;2.35;;;30.00;65.40;;;;;;5015958;28;20285;-84
2022/06/11 14:00:35;;;;;;;2.30;2.10;;;29.80;65.50;;;;;;5033036;28;20183;-81
2022/06/11 14:03:45;;;;;;;2.60;2.40;;;29.20;66.50;;;;;;5040006;28;20271;-82
2022/06/11 14:06:37;;;;;;;6.30;2.97;;;29.00;67.10;;;;;;5023823;28;20293;-83
2022/06/11 14:13:09;;;;;;;4.60;2.40;;;28.90;71.00;;;;;;5021457;28;20477;-83
2022/06/11 14:15:53;;;;;;;2.80;2.60;;;29.10;67.70;;;;;;5018616;28;20414;-84
2022/06/11 14:18:39;;;;;;;2.17;2.03;;;29.00;68.10;;;;;;5003652;28;20388;-83
2022/06/11 14:21:43;;;;;;;2.80;2.47;;;28.60;69.60;;;;;;5003079;28;20411;-85
2022/06/11 14:24:59;;;;;;;5.00;2.57;;;28.40;70.50;;;;;;5017468;28;20453;-86
2022/06/11 14:27:44;;;;;;;3.43;2.60;;;28.30;71.20;;;;;;4997160;28;20541;-84
2022/06/11 14:30:29;;;;;;;4.40;2.30;;;28.10;74.00;;;;;;5004211;28;20942;-84
2022/06/11 14:33:26;;;;;;;3.03;2.00;;;28.00;73.30;;;;;;4976855;28;20916;-85
2022/06/11 14:36:25;;;;;;;4.07;2.47;;;27.90;74.70;;;;;;5004270;28;20527;-84
2022/06/11 14:39:30;;;;;;;2.70;2.10;;;28.10;74.50;;;;;;4983475;28;20483;-84
2022/06/11 14:42:20;;;;;;;2.30;2.10;;;28.10;74.00;;;;;;5002436;28;20503;-86
2022/06/11 14:45:28;;;;;;;3.30;2.60;;;28.50;73.50;;;;;;5019064;28;20395;-85
2022/06/11 14:48:43;;;;;;;5.03;2.50;;;28.30;72.80;;;;;;5020222;28;20394;-86
2022/06/11 14:51:30;;;;;;;3.20;2.03;;;28.30;74.70;;;;;;4994351;28;20971;-85
2022/06/11 14:54:48;;;;;;;4.67;2.77;;;28.60;71.90;;;;;;5019550;28;20957;-86
2022/06/11 14:58:00;;;;;;;2.57;2.37;;;28.80;73.80;;;;;;5017930;28;20494;-86
2022/06/11 15:01:19;;;;;;;2.20;2.00;;;28.70;71.40;;;;;;5020624;28;20410;-84
2022/06/11 15:04:39;;;;;;;2.27;2.07;;;28.60;74.20;;;;;;5025054;28;20395;-82
2022/06/11 15:08:07;;;;;;;2.70;2.30;;;28.90;73.10;;;;;;5025450;28;20446;-81
2022/06/11 15:11:21;;;;;;;4.70;2.63;;;29.20;73.60;;;;;;5027938;28;20529;-83
2022/06/11 15:14:28;;;;;;;2.83;2.60;;;29.20;71.60;;;;;;5029584;28;20408;-82